createdAt,value
2023-01-30T00:00:29.485Z,39.90
2023-01-30T00:01:29.465Z,40.90
2023-01-30T00:02:29.428Z,38.80
2023-01-30T00:03:29.401Z,41.90
2023-01-30T00:04:29.377Z,39.50
2023-01-30T00:05:29.344Z,42.60
2023-01-30T00:06:29.332Z,38.70
2023-01-30T00:07:29.296Z,41.30
2023-01-30T00:08:29.259Z,44.20
2023-01-30T00:09:29.234Z,40.50
2023-01-30T00:10:29.201Z,40.20
2023-01-30T00:11:29.178Z,44.80
2023-01-30T00:12:29.145Z,40.10
2023-01-30T00:13:29.118Z,43.10
2023-01-30T00:14:29.089Z,43.60
2023-01-30T00:15:29.058Z,41.20
2023-01-30T00:16:29.083Z,45.70
2023-01-30T00:17:29.009Z,40.80
2023-01-30T00:18:28.970Z,43.40
2023-01-30T00:19:28.947Z,41.70
2023-01-30T00:20:28.921Z,47.00
2023-01-30T00:21:28.888Z,43.70
2023-01-30T00:22:28.863Z,43.50
2023-01-30T00:23:28.854Z,43.00
2023-01-30T00:24:28.887Z,41.00
2023-01-30T00:25:29.027Z,41.20
2023-01-30T00:26:28.816Z,41.40
2023-01-30T00:27:28.716Z,43.30
2023-01-30T00:28:28.686Z,43.60
2023-01-30T00:29:28.661Z,46.10
2023-01-30T00:30:28.672Z,45.50
2023-01-30T00:31:28.623Z,41.70
2023-01-30T00:32:28.599Z,45.40
2023-01-30T00:33:28.550Z,42.30
2023-01-30T00:34:28.513Z,42.60
2023-01-30T00:35:28.856Z,43.40
2023-01-30T00:36:28.456Z,43.70
2023-01-30T00:37:28.439Z,42.80
2023-01-30T00:38:28.410Z,44.30
2023-01-30T00:39:28.374Z,45.00
2023-01-30T00:40:28.348Z,44.10
2023-01-30T00:41:28.320Z,42.20
2023-01-30T00:42:28.285Z,42.20
2023-01-30T00:43:28.266Z,44.20
2023-01-30T00:44:28.235Z,43.00
2023-01-30T00:45:28.241Z,46.30
2023-01-30T00:46:28.171Z,45.00
2023-01-30T00:47:28.156Z,47.40
2023-01-30T00:48:28.115Z,46.30
2023-01-30T00:49:28.091Z,45.50
2023-01-30T00:50:28.063Z,42.40
2023-01-30T00:51:28.040Z,45.90
2023-01-30T00:52:28.005Z,44.60
2023-01-30T00:53:27.988Z,52.60
2023-01-30T00:54:27.948Z,47.30
2023-01-30T00:55:27.925Z,47.10
2023-01-30T00:56:27.890Z,47.40
2023-01-30T00:57:27.865Z,50.70
2023-01-30T00:58:27.835Z,47.30
2023-01-30T00:59:27.817Z,45.00
2023-01-30T01:00:27.780Z,47.90
2023-01-30T01:01:27.755Z,44.50
2023-01-30T01:02:27.719Z,46.30
2023-01-30T01:03:27.705Z,48.40
2023-01-30T01:04:27.670Z,45.60
2023-01-30T01:05:27.636Z,48.80
2023-01-30T01:06:27.616Z,47.90
2023-01-30T01:07:27.581Z,49.80
2023-01-30T01:08:27.556Z,47.40
2023-01-30T01:09:27.527Z,49.30
2023-01-30T01:10:27.495Z,50.10
2023-01-30T01:11:27.469Z,47.30
2023-01-30T01:12:27.439Z,48.00
2023-01-30T01:13:27.431Z,49.70
2023-01-30T01:14:27.381Z,49.70
2023-01-30T01:15:27.352Z,46.60
2023-01-30T01:16:27.392Z,49.10
2023-01-30T01:17:27.299Z,45.70
2023-01-30T01:18:27.263Z,48.40
2023-01-30T01:19:27.238Z,47.40
2023-01-30T01:20:27.206Z,51.20
2023-01-30T01:21:27.198Z,48.50
2023-01-30T01:22:27.159Z,45.10
2023-01-30T01:23:27.127Z,49.40
2023-01-30T01:24:27.094Z,46.20
2023-01-30T01:25:27.075Z,46.50
2023-01-30T01:26:27.134Z,42.80
2023-01-30T01:27:27.031Z,46.70
2023-01-30T01:28:26.982Z,47.20
2023-01-30T01:29:26.961Z,45.30
2023-01-30T01:30:26.943Z,47.80
2023-01-30T01:31:27.082Z,44.60
2023-01-30T01:32:26.868Z,48.20
2023-01-30T01:33:26.848Z,51.90
2023-01-30T01:34:26.816Z,48.40
2023-01-30T01:35:26.786Z,45.70
2023-01-30T01:36:52.146Z,47.40
2023-01-30T01:37:26.748Z,46.50
2023-01-30T01:38:26.700Z,49.70
2023-01-30T01:39:26.684Z,50.80
2023-01-30T01:40:26.642Z,51.20
2023-01-30T01:41:26.625Z,50.70
2023-01-30T01:42:26.591Z,51.40
2023-01-30T01:43:26.562Z,45.80
2023-01-30T01:44:26.522Z,54.40
2023-01-30T01:45:26.510Z,50.60
2023-01-30T01:46:26.471Z,48.40
2023-01-30T01:47:26.444Z,48.00
2023-01-30T01:48:26.422Z,49.00
2023-01-30T01:49:26.405Z,49.20
2023-01-30T01:50:26.363Z,46.50
2023-01-30T01:51:26.334Z,49.40
2023-01-30T01:52:26.299Z,46.70
2023-01-30T01:53:26.280Z,50.70
2023-01-30T01:54:26.243Z,48.80
2023-01-30T01:55:26.217Z,48.90
2023-01-30T01:56:26.183Z,46.70
2023-01-30T01:57:26.161Z,50.60
2023-01-30T01:58:26.127Z,49.70
2023-01-30T01:59:26.102Z,47.90
2023-01-30T02:00:26.072Z,47.10
2023-01-30T02:01:26.096Z,45.90
2023-01-30T02:02:26.042Z,50.90
2023-01-30T02:03:25.991Z,47.30
2023-01-30T02:04:25.962Z,47.40
2023-01-30T02:05:25.941Z,54.10
2023-01-30T02:06:25.906Z,46.20
2023-01-30T02:07:25.885Z,48.90
2023-01-30T02:08:25.847Z,51.00
2023-01-30T02:09:25.817Z,49.50
2023-01-30T02:10:25.785Z,50.40
2023-01-30T02:11:25.760Z,51.50
2023-01-30T02:12:25.729Z,49.80
2023-01-30T02:13:25.723Z,51.30
2023-01-30T02:14:25.678Z,52.00
2023-01-30T02:15:25.646Z,50.20
2023-01-30T02:16:25.616Z,47.60
2023-01-30T02:17:25.620Z,54.70
2023-01-30T02:18:25.564Z,51.00
2023-01-30T02:19:25.535Z,53.60
2023-01-30T02:20:25.505Z,53.50
2023-01-30T02:21:25.478Z,54.10
2023-01-30T02:22:25.455Z,52.60
2023-01-30T02:23:25.428Z,53.70
2023-01-30T02:24:25.389Z,54.30
2023-01-30T02:25:25.371Z,53.50
2023-01-30T02:26:25.365Z,55.20
2023-01-30T02:27:25.312Z,60.80
2023-01-30T02:28:25.282Z,56.00
2023-01-30T02:29:25.254Z,53.40
2023-01-30T02:30:25.363Z,55.40
2023-01-30T02:31:25.304Z,56.80
2023-01-30T02:32:25.164Z,53.70
2023-01-30T02:33:25.141Z,59.50
2023-01-30T02:34:25.108Z,57.10
2023-01-30T02:35:25.087Z,62.10
2023-01-30T02:36:25.051Z,56.90
2023-01-30T02:37:25.037Z,57.80
2023-01-30T02:38:24.994Z,55.10
2023-01-30T02:39:24.979Z,56.90
2023-01-30T02:40:24.942Z,54.40
2023-01-30T02:41:24.918Z,59.60
2023-01-30T02:42:24.887Z,59.10
2023-01-30T02:43:24.859Z,60.80
2023-01-30T02:44:24.826Z,57.40
2023-01-30T02:45:24.801Z,55.50
2023-01-30T02:46:24.813Z,57.80
2023-01-30T02:47:24.744Z,57.10
2023-01-30T02:48:24.725Z,54.90
2023-01-30T02:49:24.692Z,57.90
2023-01-30T02:50:24.661Z,58.10
2023-01-30T02:51:24.630Z,52.20
2023-01-30T02:52:24.606Z,55.30
2023-01-30T02:53:24.576Z,55.60
2023-01-30T02:54:24.548Z,58.70
2023-01-30T02:55:24.522Z,58.30
2023-01-30T02:56:24.505Z,58.60
2023-01-30T02:57:24.462Z,55.80
2023-01-30T02:58:24.433Z,54.60
2023-01-30T02:59:24.415Z,55.70
2023-01-30T03:00:24.388Z,55.90
2023-01-30T03:01:24.397Z,52.70
2023-01-30T03:02:24.366Z,52.90
2023-01-30T03:03:24.295Z,59.60
2023-01-30T03:04:24.266Z,54.90
2023-01-30T03:05:24.247Z,57.40
2023-01-30T03:06:24.208Z,56.00
2023-01-30T03:07:24.190Z,59.60
2023-01-30T03:08:24.164Z,52.80
2023-01-30T03:09:24.135Z,55.30
2023-01-30T03:10:24.115Z,56.60
2023-01-30T03:11:24.075Z,56.60
2023-01-30T03:12:24.041Z,56.70
2023-01-30T03:13:24.024Z,59.60
2023-01-30T03:14:23.983Z,55.30
2023-01-30T03:15:23.959Z,57.00
2023-01-30T03:16:23.965Z,55.10
2023-01-30T03:17:23.901Z,52.90
2023-01-30T03:18:23.877Z,55.90
2023-01-30T03:19:23.852Z,58.50
2023-01-30T03:20:23.844Z,56.10
2023-01-30T03:21:23.793Z,55.70
2023-01-30T03:22:23.772Z,56.50
2023-01-30T03:23:23.735Z,57.80
2023-01-30T03:24:23.708Z,54.80
2023-01-30T03:25:23.703Z,52.40
2023-01-30T03:26:23.746Z,58.70
2023-01-30T03:27:23.628Z,52.30
2023-01-30T03:28:23.594Z,56.60
2023-01-30T03:29:23.574Z,56.50
2023-01-30T03:30:23.538Z,58.40
2023-01-30T03:31:23.632Z,50.10
2023-01-30T03:32:23.486Z,54.50
2023-01-30T03:33:23.462Z,52.90
2023-01-30T03:34:23.433Z,50.30
2023-01-30T03:35:23.401Z,47.30
2023-01-30T03:36:23.377Z,49.00
2023-01-30T03:37:23.352Z,46.70
2023-01-30T03:38:23.312Z,49.50
2023-01-30T03:39:23.289Z,48.90
2023-01-30T03:40:23.258Z,47.70
2023-01-30T03:41:23.233Z,52.50
2023-01-30T03:42:23.205Z,52.30
2023-01-30T03:43:23.195Z,49.40
2023-01-30T03:44:23.168Z,54.30
2023-01-30T03:45:23.123Z,49.90
2023-01-30T03:46:23.126Z,48.30
2023-01-30T03:47:23.072Z,48.90
2023-01-30T03:48:23.043Z,46.20
2023-01-30T03:49:23.010Z,48.30
2023-01-30T03:50:22.981Z,48.70
2023-01-30T03:51:22.956Z,51.60
2023-01-30T03:52:22.924Z,49.20
2023-01-30T03:53:22.905Z,51.20
2023-01-30T03:54:22.879Z,47.50
2023-01-30T03:55:22.841Z,46.80
2023-01-30T03:56:22.860Z,49.70
2023-01-30T03:57:22.786Z,48.10
2023-01-30T03:58:22.761Z,49.20
2023-01-30T03:59:22.737Z,45.90
2023-01-30T04:00:22.730Z,47.00
2023-01-30T04:01:22.755Z,49.10
2023-01-30T04:02:22.701Z,47.70
2023-01-30T04:03:22.622Z,49.30
2023-01-30T04:04:22.594Z,44.90
2023-01-30T04:05:22.568Z,45.50
2023-01-30T04:06:22.556Z,47.00
2023-01-30T04:07:22.506Z,43.90
2023-01-30T04:08:22.484Z,43.20
2023-01-30T04:09:22.458Z,43.20
2023-01-30T04:10:22.432Z,45.20
2023-01-30T04:11:22.404Z,43.00
2023-01-30T04:12:22.381Z,44.90
2023-01-30T04:13:22.352Z,43.40
2023-01-30T04:14:22.318Z,42.70
2023-01-30T04:15:22.302Z,44.00
2023-01-30T04:16:22.341Z,44.40
2023-01-30T04:17:22.238Z,42.90
2023-01-30T04:18:22.221Z,44.30
2023-01-30T04:19:22.178Z,44.40
2023-01-30T04:20:22.156Z,42.70
2023-01-30T04:21:22.129Z,43.00
2023-01-30T04:22:22.097Z,40.90
2023-01-30T04:23:22.068Z,41.80
2023-01-30T04:24:22.040Z,39.40
2023-01-30T04:25:22.009Z,37.50
2023-01-30T04:26:22.037Z,38.00
2023-01-30T04:27:21.963Z,38.90
2023-01-30T04:28:21.933Z,35.00
2023-01-30T04:29:21.904Z,35.80
2023-01-30T04:30:21.904Z,37.80
2023-01-30T04:31:21.914Z,35.20
2023-01-30T04:32:21.953Z,37.30
2023-01-30T04:33:21.789Z,32.10
2023-01-30T04:34:21.761Z,37.10
2023-01-30T04:35:21.742Z,35.70
2023-01-30T04:36:21.717Z,37.10
2023-01-30T04:37:21.679Z,35.80
2023-01-30T04:38:21.654Z,36.80
2023-01-30T04:39:22.230Z,34.90
2023-01-30T04:40:21.594Z,37.00
2023-01-30T04:41:21.572Z,33.60
2023-01-30T04:42:21.541Z,37.90
2023-01-30T04:43:21.509Z,32.10
2023-01-30T04:44:21.490Z,34.00
2023-01-30T04:45:21.455Z,33.20
2023-01-30T04:46:21.435Z,35.20
2023-01-30T04:47:21.436Z,35.40
2023-01-30T04:48:21.415Z,36.80
2023-01-30T04:49:21.346Z,31.40
2023-01-30T04:50:21.323Z,35.50
2023-01-30T04:51:21.320Z,30.70
2023-01-30T04:52:21.262Z,35.00
2023-01-30T04:53:21.243Z,32.00
2023-01-30T04:54:21.211Z,33.30
2023-01-30T04:55:21.183Z,33.50
2023-01-30T04:56:21.165Z,34.10
2023-01-30T04:57:21.126Z,32.30
2023-01-30T04:58:21.101Z,31.70
2023-01-30T04:59:21.074Z,33.30
2023-01-30T05:00:21.050Z,33.10
2023-01-30T05:01:21.021Z,34.20
2023-01-30T05:02:23.030Z,30.80
2023-01-30T05:03:20.957Z,31.30
2023-01-30T05:04:20.960Z,33.30
2023-01-30T05:05:20.903Z,31.20
2023-01-30T05:06:20.893Z,32.40
2023-01-30T05:07:20.857Z,30.50
2023-01-30T05:08:20.827Z,28.80
2023-01-30T05:09:20.801Z,30.40
2023-01-30T05:10:20.771Z,29.60
2023-01-30T05:11:20.761Z,29.10
2023-01-30T05:12:20.715Z,31.00
2023-01-30T05:13:20.681Z,33.30
2023-01-30T05:14:20.657Z,28.00
2023-01-30T05:15:20.956Z,28.50
2023-01-30T05:16:20.607Z,27.10
2023-01-30T05:17:20.630Z,26.00
2023-01-30T05:18:20.543Z,27.90
2023-01-30T05:19:20.514Z,31.70
2023-01-30T05:20:20.523Z,29.00
2023-01-30T05:21:20.467Z,29.80
2023-01-30T05:22:20.444Z,29.20
2023-01-30T05:23:20.404Z,29.90
2023-01-30T05:24:20.384Z,28.60
2023-01-30T05:25:20.587Z,29.70
2023-01-30T05:26:20.384Z,29.50
2023-01-30T05:27:20.298Z,29.40
2023-01-30T05:28:20.270Z,29.30
2023-01-30T05:29:20.245Z,30.70
2023-01-30T05:30:20.247Z,29.70
2023-01-30T05:31:20.249Z,30.00
2023-01-30T05:32:20.166Z,28.00
2023-01-30T05:33:20.131Z,26.60
2023-01-30T05:34:20.111Z,28.50
2023-01-30T05:35:20.406Z,27.50
2023-01-30T05:36:20.072Z,27.60
2023-01-30T05:37:20.022Z,30.70
2023-01-30T05:38:19.997Z,28.50
2023-01-30T05:39:19.962Z,30.70
2023-01-30T05:40:19.953Z,32.10
2023-01-30T05:41:19.907Z,28.70
2023-01-30T05:42:19.888Z,29.30
2023-01-30T05:43:19.857Z,27.40
2023-01-30T05:44:19.830Z,29.10
2023-01-30T05:45:20.183Z,31.60
2023-01-30T05:46:19.887Z,30.50
2023-01-30T05:47:19.754Z,31.90
2023-01-30T05:48:19.719Z,31.80
2023-01-30T05:49:19.687Z,32.20
2023-01-30T05:50:19.679Z,28.70
2023-01-30T05:51:19.634Z,32.50
2023-01-30T05:52:19.637Z,29.20
2023-01-30T05:53:19.582Z,32.00
2023-01-30T05:54:19.560Z,28.60
2023-01-30T05:55:19.910Z,29.80
2023-01-30T05:56:19.510Z,29.00
2023-01-30T05:57:19.483Z,31.00
2023-01-30T05:58:19.450Z,29.20
2023-01-30T05:59:19.417Z,30.60
2023-01-30T06:00:19.389Z,29.40
2023-01-30T06:01:19.363Z,28.60
2023-01-30T06:02:19.347Z,31.60
2023-01-30T06:03:19.311Z,29.70
2023-01-30T06:04:19.293Z,30.90
2023-01-30T06:05:19.636Z,31.90
2023-01-30T06:06:19.220Z,32.10
2023-01-30T06:07:19.193Z,28.70
2023-01-30T06:08:19.194Z,31.20
2023-01-30T06:09:19.140Z,28.70
2023-01-30T06:10:19.119Z,28.50
2023-01-30T06:11:19.089Z,30.20
2023-01-30T06:12:19.060Z,27.90
2023-01-30T06:13:19.035Z,28.70
2023-01-30T06:14:19.007Z,30.20
2023-01-30T06:15:19.323Z,30.60
2023-01-30T06:16:19.122Z,29.10
2023-01-30T06:17:18.923Z,30.70
2023-01-30T06:18:18.901Z,27.40
2023-01-30T06:19:18.869Z,29.10
2023-01-30T06:20:18.838Z,26.80
2023-01-30T06:21:18.813Z,26.50
2023-01-30T06:22:18.786Z,28.60
2023-01-30T06:23:18.768Z,26.70
2023-01-30T06:24:18.758Z,27.30
2023-01-30T06:25:19.237Z,28.50
2023-01-30T06:26:18.720Z,26.00
2023-01-30T06:27:18.644Z,27.80
2023-01-30T06:28:18.621Z,26.10
2023-01-30T06:29:18.589Z,30.20
2023-01-30T06:30:18.635Z,26.40
2023-01-30T06:31:18.593Z,27.20
2023-01-30T06:32:18.510Z,29.70
2023-01-30T06:33:18.483Z,29.10
2023-01-30T06:34:18.463Z,32.70
2023-01-30T06:35:18.881Z,32.10
2023-01-30T06:36:18.405Z,21.50
2023-01-30T06:37:18.415Z,18.00
2023-01-30T06:38:18.348Z,21.40
2023-01-30T06:39:18.322Z,16.00
2023-01-30T06:40:18.319Z,13.40
2023-01-30T06:41:18.270Z,11.40
2023-01-30T06:42:18.242Z,9.80
2023-01-30T06:43:18.216Z,10.90
2023-01-30T06:44:18.184Z,11.70
2023-01-30T06:45:18.493Z,12.50
2023-01-30T06:46:18.222Z,12.60
2023-01-30T06:47:18.106Z,10.00
2023-01-30T06:48:18.083Z,12.70
2023-01-30T06:49:18.049Z,10.90
2023-01-30T06:50:18.019Z,10.70
2023-01-30T06:51:17.987Z,13.40
2023-01-30T06:52:17.967Z,10.70
2023-01-30T06:53:17.933Z,10.20
2023-01-30T06:54:17.913Z,14.10
2023-01-30T06:55:18.300Z,9.30
2023-01-30T06:56:17.874Z,11.00
2023-01-30T06:57:17.838Z,14.00
2023-01-30T06:58:17.800Z,13.00
2023-01-30T06:59:17.776Z,9.40
2023-01-30T07:00:17.747Z,10.50
2023-01-30T07:01:17.714Z,12.70
2023-01-30T07:02:17.709Z,11.70
2023-01-30T07:03:17.656Z,10.90
2023-01-30T07:04:17.681Z,11.40
2023-01-30T07:05:17.870Z,14.40
2023-01-30T07:06:17.587Z,13.00
2023-01-30T07:07:17.545Z,11.40
2023-01-30T07:08:17.525Z,11.40
2023-01-30T07:09:17.496Z,10.90
2023-01-30T07:10:17.468Z,14.00
2023-01-30T07:11:17.436Z,15.60
2023-01-30T07:12:17.443Z,13.10
2023-01-30T07:13:17.380Z,13.40
2023-01-30T07:14:17.366Z,13.50
2023-01-30T07:15:17.801Z,14.90
2023-01-30T07:16:17.324Z,13.80
2023-01-30T07:17:17.271Z,11.70
2023-01-30T07:18:17.260Z,14.20
2023-01-30T07:19:17.215Z,13.40
2023-01-30T07:20:17.190Z,15.50
2023-01-30T07:21:17.158Z,9.90
2023-01-30T07:22:17.131Z,13.00
2023-01-30T07:23:17.102Z,15.20
2023-01-30T07:24:17.077Z,15.00
2023-01-30T07:25:17.264Z,16.80
2023-01-30T07:26:17.077Z,10.00
2023-01-30T07:27:16.997Z,14.20
2023-01-30T07:28:16.989Z,12.70
2023-01-30T07:29:16.938Z,14.20
2023-01-30T07:30:16.913Z,13.80
2023-01-30T07:31:16.941Z,13.10
2023-01-30T07:32:16.860Z,13.50
2023-01-30T07:33:16.832Z,13.40
2023-01-30T07:34:16.799Z,13.40
2023-01-30T07:35:16.772Z,14.80
2023-01-30T07:36:16.770Z,11.30
2023-01-30T07:37:16.714Z,11.80
2023-01-30T07:38:16.691Z,11.90
2023-01-30T07:39:16.663Z,15.20
2023-01-30T07:40:16.658Z,14.80
2023-01-30T07:41:16.607Z,14.80
2023-01-30T07:42:16.586Z,15.40
2023-01-30T07:43:16.545Z,15.50
2023-01-30T07:44:16.558Z,14.20
2023-01-30T07:45:16.718Z,15.70
2023-01-30T07:46:16.473Z,13.40
2023-01-30T07:47:16.469Z,13.40
2023-01-30T07:48:16.421Z,16.50
2023-01-30T07:49:16.386Z,16.90
2023-01-30T07:50:16.929Z,13.90
2023-01-30T07:51:16.333Z,14.70
2023-01-30T07:52:16.309Z,15.00
2023-01-30T07:53:16.278Z,14.50
2023-01-30T07:54:16.255Z,19.10
2023-01-30T07:55:16.614Z,20.50
2023-01-30T07:56:16.191Z,21.00
2023-01-30T07:57:16.172Z,17.90
2023-01-30T07:58:16.143Z,13.40
2023-01-30T07:59:16.117Z,16.60
2023-01-30T08:00:16.531Z,19.20
2023-01-30T08:01:16.133Z,14.00
2023-01-30T08:02:16.036Z,12.20
2023-01-30T08:03:16.000Z,14.60
2023-01-30T08:04:16.070Z,17.80
2023-01-30T08:05:15.944Z,16.80
2023-01-30T08:06:15.921Z,16.40
2023-01-30T08:07:15.894Z,17.10
2023-01-30T08:08:15.880Z,18.50
2023-01-30T08:09:15.836Z,14.60
2023-01-30T08:10:16.066Z,20.00
2023-01-30T08:11:15.783Z,17.60
2023-01-30T08:12:15.749Z,19.50
2023-01-30T08:13:15.736Z,19.00
2023-01-30T08:14:15.701Z,15.50
2023-01-30T08:15:15.678Z,16.50
2023-01-30T08:16:15.714Z,16.70
2023-01-30T08:17:15.640Z,15.10
2023-01-30T08:18:15.593Z,20.20
2023-01-30T08:19:15.566Z,16.40
2023-01-30T08:20:15.585Z,15.60
2023-01-30T08:21:15.506Z,15.30
2023-01-30T08:22:15.488Z,14.30
2023-01-30T08:23:15.452Z,14.70
2023-01-30T08:24:15.428Z,21.20
2023-01-30T08:25:15.404Z,15.80
2023-01-30T08:26:15.493Z,15.80
2023-01-30T08:27:15.340Z,13.40
2023-01-30T08:28:15.310Z,20.80
2023-01-30T08:29:15.289Z,13.80
2023-01-30T08:30:15.269Z,16.70
2023-01-30T08:31:15.396Z,17.70
2023-01-30T08:32:15.983Z,17.20
2023-01-30T08:33:15.182Z,17.10
2023-01-30T08:34:15.150Z,16.90
2023-01-30T08:35:15.129Z,16.30
2023-01-30T08:36:15.093Z,16.00
2023-01-30T08:37:15.073Z,15.10
2023-01-30T08:38:15.041Z,16.60
2023-01-30T08:39:15.018Z,18.00
2023-01-30T08:40:14.990Z,20.00
2023-01-30T08:41:14.959Z,13.40
2023-01-30T08:42:14.932Z,16.70
2023-01-30T08:43:14.904Z,12.30
2023-01-30T08:44:14.882Z,20.30
2023-01-30T08:45:14.852Z,16.70
2023-01-30T08:46:14.858Z,16.60
2023-01-30T08:47:14.797Z,15.30
2023-01-30T08:48:14.871Z,17.50
2023-01-30T08:49:14.740Z,16.60
2023-01-30T08:50:14.732Z,16.90
2023-01-30T08:51:14.686Z,20.20
2023-01-30T08:52:14.654Z,16.10
2023-01-30T08:53:14.634Z,16.20
2023-01-30T08:54:14.604Z,14.50
2023-01-30T08:55:14.577Z,16.80
2023-01-30T08:56:14.563Z,14.70
2023-01-30T08:57:14.520Z,15.40
2023-01-30T08:58:14.499Z,17.00
2023-01-30T08:59:14.478Z,17.30
2023-01-30T09:00:14.436Z,18.10
2023-01-30T09:01:14.446Z,15.20
2023-01-30T09:02:14.424Z,15.10
2023-01-30T09:03:14.362Z,19.30
2023-01-30T09:04:14.358Z,16.00
2023-01-30T09:05:14.304Z,13.40
2023-01-30T09:06:14.270Z,19.80
2023-01-30T09:07:14.250Z,14.40
2023-01-30T09:08:14.216Z,15.50
2023-01-30T09:09:14.195Z,14.50
2023-01-30T09:10:14.161Z,13.10
2023-01-30T09:11:14.137Z,15.30
2023-01-30T09:12:14.106Z,17.20
2023-01-30T09:13:14.079Z,13.20
2023-01-30T09:14:14.050Z,18.40
2023-01-30T09:15:14.029Z,15.10
2023-01-30T09:16:14.056Z,18.80
2023-01-30T09:17:13.970Z,17.90
2023-01-30T09:18:13.942Z,20.60
2023-01-30T09:19:13.919Z,13.20
2023-01-30T09:20:13.923Z,17.00
2023-01-30T09:21:13.877Z,16.10
2023-01-30T09:22:13.830Z,21.60
2023-01-30T09:23:13.811Z,16.60
2023-01-30T09:24:13.789Z,15.20
2023-01-30T09:25:13.758Z,16.50
2023-01-30T09:26:13.763Z,16.00
2023-01-30T09:27:13.703Z,14.90
2023-01-30T09:28:13.680Z,15.30
2023-01-30T09:29:13.644Z,17.60
2023-01-30T09:30:13.621Z,16.40
2023-01-30T09:31:13.715Z,17.10
2023-01-30T09:32:13.576Z,15.50
2023-01-30T09:33:13.539Z,18.40
2023-01-30T09:34:13.503Z,16.30
2023-01-30T09:35:13.484Z,14.50
2023-01-30T09:36:13.581Z,19.60
2023-01-30T09:37:13.440Z,19.20
2023-01-30T09:38:13.399Z,21.20
2023-01-30T09:39:13.380Z,18.80
2023-01-30T09:40:13.341Z,20.10
2023-01-30T09:41:13.321Z,24.10
2023-01-30T09:42:13.285Z,16.30
2023-01-30T09:43:13.275Z,17.10
2023-01-30T09:44:13.236Z,16.20
2023-01-30T09:45:13.222Z,18.00
2023-01-30T09:46:13.222Z,17.20
2023-01-30T09:47:13.201Z,19.50
2023-01-30T09:48:13.125Z,13.60
2023-01-30T09:49:13.100Z,18.50
2023-01-30T09:50:13.066Z,15.50
2023-01-30T09:51:13.047Z,19.20
2023-01-30T09:52:13.043Z,18.80
2023-01-30T09:53:12.991Z,18.40
2023-01-30T09:54:12.982Z,15.80
2023-01-30T09:55:12.944Z,14.90
2023-01-30T09:56:12.908Z,14.40
2023-01-30T09:57:21.092Z,16.90
2023-01-30T09:58:12.894Z,15.60
2023-01-30T09:59:12.822Z,18.50
2023-01-30T10:00:12.802Z,18.20
2023-01-30T10:01:12.782Z,13.60
2023-01-30T10:02:12.737Z,13.20
2023-01-30T10:03:12.752Z,21.20
2023-01-30T10:04:12.728Z,17.20
2023-01-30T10:05:12.728Z,16.30
2023-01-30T10:06:12.640Z,20.10
2023-01-30T10:07:12.603Z,16.80
2023-01-30T10:08:12.623Z,17.50
2023-01-30T10:09:12.557Z,16.80
2023-01-30T10:10:12.534Z,16.80
2023-01-30T10:11:12.499Z,14.70
2023-01-30T10:12:12.483Z,16.60
2023-01-30T10:13:12.453Z,14.70
2023-01-30T10:14:12.418Z,14.30
2023-01-30T10:15:12.394Z,15.50
2023-01-30T10:16:12.426Z,20.40
2023-01-30T10:17:12.345Z,16.10
2023-01-30T10:18:12.311Z,16.50
2023-01-30T10:19:13.381Z,16.10
2023-01-30T10:20:12.264Z,15.20
2023-01-30T10:21:12.227Z,20.70
2023-01-30T10:22:12.197Z,14.10
2023-01-30T10:23:12.175Z,19.70
2023-01-30T10:24:12.160Z,13.80
2023-01-30T10:25:12.121Z,17.90
2023-01-30T10:26:12.170Z,15.70
2023-01-30T10:27:12.071Z,18.00
2023-01-30T10:28:12.036Z,17.60
2023-01-30T10:29:12.012Z,20.80
2023-01-30T10:30:11.979Z,14.20
2023-01-30T10:31:12.028Z,21.20
2023-01-30T10:32:11.931Z,20.20
2023-01-30T10:33:11.899Z,17.70
2023-01-30T10:34:11.870Z,14.70
2023-01-30T10:35:11.848Z,21.80
2023-01-30T10:36:11.830Z,17.10
2023-01-30T10:37:11.789Z,17.10
2023-01-30T10:38:11.765Z,16.30
2023-01-30T10:39:11.736Z,18.70
2023-01-30T10:40:11.725Z,18.60
2023-01-30T10:41:11.695Z,15.30
2023-01-30T10:42:11.932Z,14.80
2023-01-30T10:43:11.646Z,21.60
2023-01-30T10:44:11.604Z,16.10
2023-01-30T10:45:11.572Z,13.70
2023-01-30T10:46:11.585Z,20.50
2023-01-30T10:47:11.524Z,17.40
2023-01-30T10:48:11.491Z,19.00
2023-01-30T10:49:11.465Z,20.60
2023-01-30T10:50:11.436Z,14.30
2023-01-30T10:51:11.432Z,18.10
2023-01-30T10:52:11.382Z,15.50
2023-01-30T10:53:11.359Z,14.10
2023-01-30T10:54:11.330Z,16.80
2023-01-30T10:55:11.305Z,14.70
2023-01-30T10:56:11.295Z,16.60
2023-01-30T10:57:11.247Z,17.30
2023-01-30T10:58:11.223Z,16.00
2023-01-30T10:59:11.199Z,16.90
2023-01-30T11:00:11.160Z,13.70
2023-01-30T11:01:11.147Z,16.00
2023-01-30T11:02:11.110Z,16.60
2023-01-30T11:03:11.134Z,18.20
2023-01-30T11:04:11.055Z,14.40
2023-01-30T11:05:11.031Z,19.60
2023-01-30T11:06:11.024Z,15.10
2023-01-30T11:07:10.979Z,18.50
2023-01-30T11:08:10.951Z,15.20
2023-01-30T11:09:10.925Z,17.20
2023-01-30T11:10:10.900Z,14.30
2023-01-30T11:11:10.875Z,14.90
2023-01-30T11:12:10.863Z,16.00
2023-01-30T11:13:10.808Z,14.90
2023-01-30T11:14:10.794Z,17.80
2023-01-30T11:15:10.768Z,17.20
2023-01-30T11:16:10.859Z,13.40
2023-01-30T11:17:10.706Z,17.50
2023-01-30T11:19:20.760Z,14.90
2023-01-30T11:20:13.372Z,20.70
2023-01-30T11:21:10.602Z,13.40
2023-01-30T11:22:10.572Z,15.70
2023-01-30T11:23:10.539Z,15.90
2023-01-30T11:24:10.511Z,16.00
2023-01-30T11:25:10.492Z,24.50
2023-01-30T11:26:11.968Z,16.60
2023-01-30T11:27:10.482Z,14.90
2023-01-30T11:28:10.425Z,15.30
2023-01-30T11:29:10.391Z,15.70
2023-01-30T11:30:10.356Z,15.70
2023-01-30T11:31:10.364Z,13.30
2023-01-30T11:32:10.344Z,15.80
2023-01-30T11:33:10.283Z,18.00
2023-01-30T11:34:10.240Z,15.90
2023-01-30T11:35:10.221Z,14.70
2023-01-30T11:36:10.188Z,11.50
2023-01-30T11:37:10.165Z,14.90
2023-01-30T11:38:10.133Z,15.80
2023-01-30T11:39:10.113Z,17.50
2023-01-30T11:40:10.099Z,16.80
2023-01-30T11:41:10.062Z,21.30
2023-01-30T11:42:10.035Z,13.80
2023-01-30T11:43:10.007Z,16.60
2023-01-30T11:44:09.992Z,16.00
2023-01-30T11:45:17.759Z,15.50
2023-01-30T11:46:10.019Z,17.40
2023-01-30T11:47:09.900Z,12.40
2023-01-30T11:48:12.488Z,15.10
2023-01-30T11:49:38.889Z,12.60
2023-01-30T11:50:13.238Z,16.00
2023-01-30T11:51:09.792Z,11.80
2023-01-30T11:52:09.762Z,13.50
2023-01-30T11:53:09.735Z,16.40
2023-01-30T11:54:09.704Z,14.40
2023-01-30T11:55:09.680Z,14.60
2023-01-30T11:56:11.119Z,16.30
2023-01-30T11:57:09.621Z,18.70
2023-01-30T11:58:09.635Z,14.40
2023-01-30T11:59:09.572Z,14.30
2023-01-30T12:00:09.560Z,16.70
2023-01-30T12:01:09.531Z,14.30
2023-01-30T12:02:09.571Z,14.10
2023-01-30T12:03:09.487Z,12.70
2023-01-30T12:04:09.426Z,13.70
2023-01-30T12:05:09.405Z,14.00
2023-01-30T12:06:09.382Z,13.30
2023-01-30T12:07:09.360Z,14.70
2023-01-30T12:08:09.327Z,14.50
2023-01-30T12:09:09.298Z,14.00
2023-01-30T12:10:09.267Z,17.30
2023-01-30T12:11:09.245Z,16.50
2023-01-30T12:12:09.217Z,15.00
2023-01-30T12:13:09.194Z,15.40
2023-01-30T12:14:09.169Z,14.30
2023-01-30T12:15:09.136Z,13.60
2023-01-30T12:16:09.212Z,14.90
2023-01-30T12:17:09.080Z,13.30
2023-01-30T12:18:09.049Z,12.70
2023-01-30T12:19:09.032Z,16.80
2023-01-30T12:20:09.000Z,15.80
2023-01-30T12:21:08.980Z,13.50
2023-01-30T12:22:08.945Z,14.40
2023-01-30T12:23:08.926Z,15.70
2023-01-30T12:24:08.893Z,12.00
2023-01-30T12:25:08.863Z,11.60
2023-01-30T12:26:08.843Z,13.00
2023-01-30T12:27:08.808Z,13.60
2023-01-30T12:28:08.781Z,12.20
2023-01-30T12:29:08.761Z,15.40
2023-01-30T12:30:08.739Z,15.50
2023-01-30T12:31:08.709Z,14.00
2023-01-30T12:32:08.699Z,14.30
2023-01-30T12:33:08.661Z,14.20
2023-01-30T12:34:08.628Z,12.60
2023-01-30T12:35:08.595Z,15.20
2023-01-30T12:36:08.572Z,11.10
2023-01-30T12:37:08.541Z,12.40
2023-01-30T12:38:08.521Z,15.70
2023-01-30T12:39:08.486Z,19.80
2023-01-30T12:40:08.463Z,13.30
2023-01-30T12:41:08.434Z,17.00
2023-01-30T12:42:08.409Z,13.90
2023-01-30T12:43:08.383Z,15.30
2023-01-30T12:44:08.351Z,14.40
2023-01-30T12:45:08.321Z,13.10
2023-01-30T12:46:08.353Z,14.70
2023-01-30T12:47:08.290Z,13.90
2023-01-30T12:48:08.268Z,13.50
2023-01-30T12:49:11.566Z,16.60
2023-01-30T12:50:08.191Z,17.40
2023-01-30T12:51:08.164Z,13.20
2023-01-30T12:52:08.138Z,14.70
2023-01-30T12:53:08.108Z,14.40